Bell, FL (32619)

7:55 PM EST on December 05, 2016 (GMT -0500)
Suwanee River House | | Change Station

Elev 8 ft 29.80 °N, 82.93 °W | Updated 10 minutes ago

Overcast
Overcast
74.0 °F
Feels Like 72 °F
N
0.0
Wind Variable Wind from ENE
Gusts 3.0 mph

Today
High -- | Low -- °F
--% Chance of Precip.
Yesterday
High -- | Low -- °F
Precip. -- in
Pressure 29.86 in
Visibility 10.0 miles
Clouds Overcast 1400 ft
Heat Index 72 °F
Dew Point 71 °F
Humidity 90%
Rainfall 0.00 in
Snow Depth Not available.
7:12 AM 5:31 PM
Waxing Crescent, 36% visible
METAR KCTY 060030Z AUTO 19013G18KT 160V220 10SM OVC014 24/21 A2986 RMK AO2 LTG DSNT W
Pressure 29.86 in
Visibility 10.0 miles
Clouds Overcast 1400 ft
Heat Index 72 °F
Dew Point 71 °F
Humidity 90%
Rainfall 0.00 in
Snow Depth Not available.
7:12 AM 5:31 PM
Waxing Crescent, 36% visible
METAR KCTY 060030Z AUTO 19013G18KT 160V220 10SM OVC014 24/21 A2986 RMK AO2 LTG DSNT W

10-Day Weather Forecast

Almanac

Astronomy

Dec. 05, 2016 Rise Set
Actual Time
Civil Twilight
Nautical Twilight
Astronomical Twilight
Moon
Length of Visible Light
Length of Day
Tomorrow will be .
, % of the Moon is Illuminated

Today's Extremes

State Highs State Lows

Community

WunderPhotos

Upload Photos

1,955,886 photos uploaded!

WunderBlog® & News

Nearby

Air Quality

  Air Quality AQ Index Pollutant
Not available.

Snow Depth

Station Depth Elevation

Earthquake Activity

City Distance Mag. Time & Date
Minimum magnitude displayed is 2.5.

Coastal Water Temperatures

Place Temperature

Stations

Nearby Weather Stations

Station Location Temp. Windchill Dew Point Humidity Wind Precip. Elev Updated Type
                   

Watches & Warnings

There are currently no watches in effect.